Butes — A8UR6 — position and weather

sailwx.info

Track history (hours):
 
Tides and Currents Weather Stations Pressure Air Temp Water Temp Dewpoint Dewpoint Depression Visibility Wind Speed Wind Dir Waves Ship Positions

Butes

Last reported at 2014-Aug-23 03:33 UTC. Time now 2014-Sep-02 23:44 UTC.
Position N 38°22' E 013°13'.
Warning: this ship's position is 10 days out of date.

Length 90 m; draft 5.6 m.

Type: Cargo ship. MMSI: 636091937.

Date/timePositionNaut miles runAvg speedWind from/ knotsBaromVisibWave heightAir tempDewpointWater temp
2014-Aug-23 03:33N 38°22' E 013°13'8 8.3
2014-Aug-23 02:33N 38°22' E 013°02'8 8.3
2014-Aug-23 01:33N 38°21' E 012°51'8 8.1
2014-Aug-23 00:33N 38°20' E 012°41'96 8.0
2014-Aug-22 12:27N 38°04' E 010°40'8 7.9
2014-Aug-22 11:30N 38°03' E 010°31'48 8.1
2014-Aug-22 05:33N 37°55' E 009°31'8 7.8
2014-Aug-22 04:33N 37°53' E 009°21'298 7.6
2014-Aug-20 13:04N 37°04' E 003°10'413 8.0
2014-Aug-18 09:29N 35°56' W 005°16'3 3.4
2014-Aug-18 08:33N 35°54' W 005°19'0 0.0
2014-Aug-18 07:33N 35°54' W 005°19'0 0.0
2014-Aug-18 06:30N 35°54' W 005°19'0 0.5
2014-Aug-18 05:34N 35°54' W 005°19'  
Track history (hours):
 
Tides and Currents Weather Stations Pressure Air Temp Water Temp Dewpoint Dewpoint Depression Visibility Wind Speed Wind Dir Waves Ship Positions

Butes

Last reported at 2014-Aug-23 03:33 UTC. Time now 2014-Sep-02 23:44 UTC.
Position N 38°22' E 013°13'.
Warning: this ship's position is 10 days out of date.

Length 90 m; draft 5.6 m.

Type: Cargo ship. MMSI: 636091937.

Date/timePositionNaut miles runAvg speedWind from/ knotsBaromVisibWave heightAir tempDewpointWater temp
2014-Aug-23 03:33N 38°22' E 013°13'8 8.3
2014-Aug-23 02:33N 38°22' E 013°02'8 8.3
2014-Aug-23 01:33N 38°21' E 012°51'8 8.1
2014-Aug-23 00:33N 38°20' E 012°41'96 8.0
2014-Aug-22 12:27N 38°04' E 010°40'8 7.9
2014-Aug-22 11:30N 38°03' E 010°31'48 8.1
2014-Aug-22 05:33N 37°55' E 009°31'8 7.8
2014-Aug-22 04:33N 37°53' E 009°21'298 7.6
2014-Aug-20 13:04N 37°04' E 003°10'413 8.0
2014-Aug-18 09:29N 35°56' W 005°16'3 3.4
2014-Aug-18 08:33N 35°54' W 005°19'0 0.0
2014-Aug-18 07:33N 35°54' W 005°19'0 0.0
2014-Aug-18 06:30N 35°54' W 005°19'0 0.5
2014-Aug-18 05:34N 35°54' W 005°19'  

Dump ship's entire track history